sensor_id;sensor_type;location;lat;lon;timestamp;P1;durP1;ratioP1;P2;durP2;ratioP2
76708;SDS011;74360;44.410;0.216;2024-03-17T00:04:33;9.87;;;3.53;;
76708;SDS011;74360;44.410;0.216;2024-03-17T00:10:07;11.57;;;3.77;;
76708;SDS011;74360;44.410;0.216;2024-03-17T00:15:39;10.47;;;4.00;;
76708;SDS011;74360;44.410;0.216;2024-03-17T00:21:12;10.27;;;3.40;;
76708;SDS011;74360;44.410;0.216;2024-03-17T00:26:46;8.63;;;3.93;;
76708;SDS011;74360;44.410;0.216;2024-03-17T00:32:18;9.07;;;3.30;;
76708;SDS011;74360;44.410;0.216;2024-03-17T00:37:50;11.37;;;4.70;;
76708;SDS011;74360;44.410;0.216;2024-03-17T00:43:22;12.10;;;4.90;;
76708;SDS011;74360;44.410;0.216;2024-03-17T00:48:55;10.03;;;4.40;;
76708;SDS011;74360;44.410;0.216;2024-03-17T00:54:27;11.37;;;4.60;;
76708;SDS011;74360;44.410;0.216;2024-03-17T00:59:59;13.30;;;4.13;;
76708;SDS011;74360;44.410;0.216;2024-03-17T01:05:33;10.80;;;4.23;;
76708;SDS011;74360;44.410;0.216;2024-03-17T01:11:09;11.90;;;4.30;;
76708;SDS011;74360;44.410;0.216;2024-03-17T01:16:38;13.23;;;4.57;;
76708;SDS011;74360;44.410;0.216;2024-03-17T01:22:10;11.80;;;4.10;;
76708;SDS011;74360;44.410;0.216;2024-03-17T01:27:43;8.23;;;4.03;;
76708;SDS011;74360;44.410;0.216;2024-03-17T01:33:15;11.83;;;4.27;;
76708;SDS011;74360;44.410;0.216;2024-03-17T01:38:46;11.67;;;4.23;;
76708;SDS011;74360;44.410;0.216;2024-03-17T01:44:22;8.93;;;3.50;;
76708;SDS011;74360;44.410;0.216;2024-03-17T01:49:53;10.17;;;3.70;;
76708;SDS011;74360;44.410;0.216;2024-03-17T01:55:27;12.63;;;4.90;;
76708;SDS011;74360;44.410;0.216;2024-03-17T02:00:59;14.93;;;4.37;;
76708;SDS011;74360;44.410;0.216;2024-03-17T02:06:31;10.43;;;4.43;;
76708;SDS011;74360;44.410;0.216;2024-03-17T02:12:05;8.37;;;3.67;;
76708;SDS011;74360;44.410;0.216;2024-03-17T02:23:10;9.80;;;4.17;;
76708;SDS011;74360;44.410;0.216;2024-03-17T02:28:44;11.37;;;4.00;;
76708;SDS011;74360;44.410;0.216;2024-03-17T02:34:16;10.70;;;4.83;;
76708;SDS011;74360;44.410;0.216;2024-03-17T02:39:48;11.80;;;4.43;;
76708;SDS011;74360;44.410;0.216;2024-03-17T02:45:21;12.07;;;5.10;;
76708;SDS011;74360;44.410;0.216;2024-03-17T02:50:53;9.57;;;4.40;;
76708;SDS011;74360;44.410;0.216;2024-03-17T02:56:25;10.87;;;4.33;;
76708;SDS011;74360;44.410;0.216;2024-03-17T03:01:57;11.07;;;4.27;;
76708;SDS011;74360;44.410;0.216;2024-03-17T03:07:29;10.37;;;4.03;;
76708;SDS011;74360;44.410;0.216;2024-03-17T03:13:01;10.47;;;4.03;;
76708;SDS011;74360;44.410;0.216;2024-03-17T03:18:35;10.60;;;4.07;;
76708;SDS011;74360;44.410;0.216;2024-03-17T03:24:07;11.83;;;3.90;;
76708;SDS011;74360;44.410;0.216;2024-03-17T03:29:40;9.53;;;3.90;;
76708;SDS011;74360;44.410;0.216;2024-03-17T03:35:12;10.63;;;3.60;;
76708;SDS011;74360;44.410;0.216;2024-03-17T03:40:45;9.07;;;3.70;;
76708;SDS011;74360;44.410;0.216;2024-03-17T03:46:18;9.57;;;3.90;;
76708;SDS011;74360;44.410;0.216;2024-03-17T03:51:50;10.33;;;4.10;;
76708;SDS011;74360;44.410;0.216;2024-03-17T03:57:22;9.57;;;4.00;;
76708;SDS011;74360;44.410;0.216;2024-03-17T04:02:55;11.63;;;3.97;;
76708;SDS011;74360;44.410;0.216;2024-03-17T04:08:27;9.73;;;3.70;;
76708;SDS011;74360;44.410;0.216;2024-03-17T04:14:01;10.23;;;3.80;;
76708;SDS011;74360;44.410;0.216;2024-03-17T04:19:33;9.30;;;3.33;;
76708;SDS011;74360;44.410;0.216;2024-03-17T04:25:06;10.57;;;3.90;;
76708;SDS011;74360;44.410;0.216;2024-03-17T04:30:38;7.93;;;3.53;;
76708;SDS011;74360;44.410;0.216;2024-03-17T04:36:10;10.60;;;3.67;;
76708;SDS011;74360;44.410;0.216;2024-03-17T04:41:43;7.20;;;3.50;;
76708;SDS011;74360;44.410;0.216;2024-03-17T04:47:15;12.07;;;4.27;;
76708;SDS011;74360;44.410;0.216;2024-03-17T04:52:49;9.17;;;3.50;;
76708;SDS011;74360;44.410;0.216;2024-03-17T04:58:22;10.30;;;3.47;;
76708;SDS011;74360;44.410;0.216;2024-03-17T05:03:53;9.00;;;3.63;;
76708;SDS011;74360;44.410;0.216;2024-03-17T05:09:28;11.63;;;3.50;;
76708;SDS011;74360;44.410;0.216;2024-03-17T05:20:32;9.60;;;3.27;;
76708;SDS011;74360;44.410;0.216;2024-03-17T05:26:05;10.50;;;3.13;;
76708;SDS011;74360;44.410;0.216;2024-03-17T05:31:39;8.90;;;2.90;;
76708;SDS011;74360;44.410;0.216;2024-03-17T05:37:12;8.70;;;3.40;;
76708;SDS011;74360;44.410;0.216;2024-03-17T05:42:44;8.87;;;2.87;;
76708;SDS011;74360;44.410;0.216;2024-03-17T05:48:17;7.87;;;2.73;;
76708;SDS011;74360;44.410;0.216;2024-03-17T05:53:51;8.90;;;3.17;;
76708;SDS011;74360;44.410;0.216;2024-03-17T05:59:24;10.27;;;3.00;;
76708;SDS011;74360;44.410;0.216;2024-03-17T06:04:58;9.17;;;2.80;;
76708;SDS011;74360;44.410;0.216;2024-03-17T06:21:35;8.10;;;2.87;;
76708;SDS011;74360;44.410;0.216;2024-03-17T06:27:07;9.17;;;2.87;;
76708;SDS011;74360;44.410;0.216;2024-03-17T06:38:13;8.43;;;2.90;;
76708;SDS011;74360;44.410;0.216;2024-03-17T06:49:20;9.80;;;2.50;;
76708;SDS011;74360;44.410;0.216;2024-03-17T06:54:53;9.40;;;2.80;;
76708;SDS011;74360;44.410;0.216;2024-03-17T07:00:25;10.23;;;2.93;;
76708;SDS011;74360;44.410;0.216;2024-03-17T07:05:58;9.37;;;3.00;;
76708;SDS011;74360;44.410;0.216;2024-03-17T07:11:28;10.87;;;3.23;;
76708;SDS011;74360;44.410;0.216;2024-03-17T07:17:01;8.43;;;3.03;;
76708;SDS011;74360;44.410;0.216;2024-03-17T07:22:34;10.07;;;3.43;;
76708;SDS011;74360;44.410;0.216;2024-03-17T07:28:07;12.33;;;3.30;;
76708;SDS011;74360;44.410;0.216;2024-03-17T07:33:40;8.73;;;3.50;;
76708;SDS011;74360;44.410;0.216;2024-03-17T07:39:13;9.87;;;2.77;;
76708;SDS011;74360;44.410;0.216;2024-03-17T07:44:45;10.20;;;3.13;;
76708;SDS011;74360;44.410;0.216;2024-03-17T07:50:18;8.27;;;3.00;;
76708;SDS011;74360;44.410;0.216;2024-03-17T07:55:58;9.90;;;3.33;;
76708;SDS011;74360;44.410;0.216;2024-03-17T08:01:23;8.47;;;2.87;;
76708;SDS011;74360;44.410;0.216;2024-03-17T08:06:56;8.33;;;3.33;;
76708;SDS011;74360;44.410;0.216;2024-03-17T08:12:30;11.47;;;3.67;;
76708;SDS011;74360;44.410;0.216;2024-03-17T08:18:03;8.40;;;3.40;;
76708;SDS011;74360;44.410;0.216;2024-03-17T08:23:36;9.50;;;3.17;;
76708;SDS011;74360;44.410;0.216;2024-03-17T08:29:08;6.97;;;2.63;;
76708;SDS011;74360;44.410;0.216;2024-03-17T08:34:41;10.60;;;3.13;;
76708;SDS011;74360;44.410;0.216;2024-03-17T08:40:14;9.03;;;2.50;;
76708;SDS011;74360;44.410;0.216;2024-03-17T08:45:45;6.83;;;2.73;;
76708;SDS011;74360;44.410;0.216;2024-03-17T08:51:18;7.13;;;2.97;;
76708;SDS011;74360;44.410;0.216;2024-03-17T08:56:52;8.80;;;2.60;;
76708;SDS011;74360;44.410;0.216;2024-03-17T09:02:24;9.43;;;2.63;;
76708;SDS011;74360;44.410;0.216;2024-03-17T09:07:57;5.97;;;2.20;;
76708;SDS011;74360;44.410;0.216;2024-03-17T09:13:29;7.33;;;2.30;;
76708;SDS011;74360;44.410;0.216;2024-03-17T09:19:02;7.40;;;3.30;;
76708;SDS011;74360;44.410;0.216;2024-03-17T09:24:34;11.00;;;2.87;;
76708;SDS011;74360;44.410;0.216;2024-03-17T09:30:09;8.37;;;2.43;;
76708;SDS011;74360;44.410;0.216;2024-03-17T09:35:38;6.57;;;2.57;;
76708;SDS011;74360;44.410;0.216;2024-03-17T09:41:18;8.27;;;2.93;;
76708;SDS011;74360;44.410;0.216;2024-03-17T09:46:44;11.13;;;3.80;;
76708;SDS011;74360;44.410;0.216;2024-03-17T09:52:19;6.73;;;2.77;;
76708;SDS011;74360;44.410;0.216;2024-03-17T09:57:51;5.57;;;2.60;;
76708;SDS011;74360;44.410;0.216;2024-03-17T10:08:58;8.97;;;2.80;;
76708;SDS011;74360;44.410;0.216;2024-03-17T10:14:31;9.60;;;2.77;;
76708;SDS011;74360;44.410;0.216;2024-03-17T10:20:11;7.23;;;2.40;;
76708;SDS011;74360;44.410;0.216;2024-03-17T10:25:38;8.70;;;2.57;;
76708;SDS011;74360;44.410;0.216;2024-03-17T10:31:09;8.60;;;2.90;;
76708;SDS011;74360;44.410;0.216;2024-03-17T10:36:41;7.40;;;3.37;;
76708;SDS011;74360;44.410;0.216;2024-03-17T10:42:14;9.03;;;4.80;;
76708;SDS011;74360;44.410;0.216;2024-03-17T10:47:47;7.57;;;2.30;;
76708;SDS011;74360;44.410;0.216;2024-03-17T10:53:20;8.67;;;4.00;;
76708;SDS011;74360;44.410;0.216;2024-03-17T10:58:53;7.60;;;2.60;;
76708;SDS011;74360;44.410;0.216;2024-03-17T11:04:25;8.57;;;2.67;;
76708;SDS011;74360;44.410;0.216;2024-03-17T11:09:58;8.20;;;2.40;;
76708;SDS011;74360;44.410;0.216;2024-03-17T11:26:36;6.17;;;1.87;;
76708;SDS011;74360;44.410;0.216;2024-03-17T11:37:42;7.80;;;2.40;;
76708;SDS011;74360;44.410;0.216;2024-03-17T11:43:16;5.43;;;2.00;;
76708;SDS011;74360;44.410;0.216;2024-03-17T11:48:47;6.77;;;2.00;;
76708;SDS011;74360;44.410;0.216;2024-03-17T11:54:20;4.20;;;1.53;;
76708;SDS011;74360;44.410;0.216;2024-03-17T11:59:54;5.47;;;1.67;;
76708;SDS011;74360;44.410;0.216;2024-03-17T12:05:26;6.17;;;2.10;;
76708;SDS011;74360;44.410;0.216;2024-03-17T12:10:58;6.57;;;2.07;;
76708;SDS011;74360;44.410;0.216;2024-03-17T12:16:30;6.10;;;2.27;;
76708;SDS011;74360;44.410;0.216;2024-03-17T12:22:02;6.63;;;2.00;;
76708;SDS011;74360;44.410;0.216;2024-03-17T12:27:34;5.50;;;1.80;;
76708;SDS011;74360;44.410;0.216;2024-03-17T12:33:05;6.47;;;2.20;;
76708;SDS011;74360;44.410;0.216;2024-03-17T12:38:37;6.40;;;2.37;;
76708;SDS011;74360;44.410;0.216;2024-03-17T12:49:44;7.20;;;2.00;;
76708;SDS011;74360;44.410;0.216;2024-03-17T12:55:22;5.03;;;1.87;;
76708;SDS011;74360;44.410;0.216;2024-03-17T13:00:46;6.40;;;2.20;;
76708;SDS011;74360;44.410;0.216;2024-03-17T13:06:22;5.77;;;2.20;;
76708;SDS011;74360;44.410;0.216;2024-03-17T13:11:52;8.70;;;2.27;;
76708;SDS011;74360;44.410;0.216;2024-03-17T13:17:24;7.60;;;2.00;;
76708;SDS011;74360;44.410;0.216;2024-03-17T13:22:58;5.60;;;1.87;;
76708;SDS011;74360;44.410;0.216;2024-03-17T13:28:31;8.53;;;2.30;;
76708;SDS011;74360;44.410;0.216;2024-03-17T13:34:02;7.03;;;2.30;;
76708;SDS011;74360;44.410;0.216;2024-03-17T13:45:09;6.70;;;2.63;;
76708;SDS011;74360;44.410;0.216;2024-03-17T13:50:41;6.77;;;2.63;;
76708;SDS011;74360;44.410;0.216;2024-03-17T13:56:13;6.50;;;2.30;;
76708;SDS011;74360;44.410;0.216;2024-03-17T14:07:19;8.30;;;2.40;;
76708;SDS011;74360;44.410;0.216;2024-03-17T14:12:51;7.23;;;2.43;;
76708;SDS011;74360;44.410;0.216;2024-03-17T14:18:22;5.17;;;2.00;;
76708;SDS011;74360;44.410;0.216;2024-03-17T14:23:55;5.17;;;1.83;;
76708;SDS011;74360;44.410;0.216;2024-03-17T14:29:27;6.10;;;1.90;;
76708;SDS011;74360;44.410;0.216;2024-03-17T14:35:00;5.97;;;1.83;;
76708;SDS011;74360;44.410;0.216;2024-03-17T14:40:33;5.03;;;1.80;;
76708;SDS011;74360;44.410;0.216;2024-03-17T14:51:37;5.87;;;2.10;;
76708;SDS011;74360;44.410;0.216;2024-03-17T14:57:11;7.00;;;2.40;;
76708;SDS011;74360;44.410;0.216;2024-03-17T15:02:43;5.83;;;2.70;;
76708;SDS011;74360;44.410;0.216;2024-03-17T15:08:16;5.10;;;1.90;;
76708;SDS011;74360;44.410;0.216;2024-03-17T15:13:50;4.73;;;1.77;;
76708;SDS011;74360;44.410;0.216;2024-03-17T15:19:22;5.53;;;2.10;;
76708;SDS011;74360;44.410;0.216;2024-03-17T15:24:56;6.00;;;1.93;;
76708;SDS011;74360;44.410;0.216;2024-03-17T15:30:29;7.70;;;2.00;;
76708;SDS011;74360;44.410;0.216;2024-03-17T15:36:00;5.90;;;2.20;;
76708;SDS011;74360;44.410;0.216;2024-03-17T15:41:34;5.23;;;2.40;;
76708;SDS011;74360;44.410;0.216;2024-03-17T15:47:04;6.77;;;2.03;;
76708;SDS011;74360;44.410;0.216;2024-03-17T15:52:37;7.33;;;2.20;;
76708;SDS011;74360;44.410;0.216;2024-03-17T15:58:08;8.17;;;2.40;;
76708;SDS011;74360;44.410;0.216;2024-03-17T16:03:41;5.63;;;2.10;;
76708;SDS011;74360;44.410;0.216;2024-03-17T16:09:14;6.20;;;1.90;;
76708;SDS011;74360;44.410;0.216;2024-03-17T16:14:47;6.93;;;2.30;;
76708;SDS011;74360;44.410;0.216;2024-03-17T16:20:28;5.90;;;1.97;;
76708;SDS011;74360;44.410;0.216;2024-03-17T16:25:57;5.33;;;2.07;;
76708;SDS011;74360;44.410;0.216;2024-03-17T16:31:26;6.53;;;2.10;;
76708;SDS011;74360;44.410;0.216;2024-03-17T16:36:59;8.10;;;2.33;;
76708;SDS011;74360;44.410;0.216;2024-03-17T16:42:32;6.87;;;2.50;;
76708;SDS011;74360;44.410;0.216;2024-03-17T16:48:04;8.67;;;2.27;;
76708;SDS011;74360;44.410;0.216;2024-03-17T16:53:36;6.53;;;2.57;;
76708;SDS011;74360;44.410;0.216;2024-03-17T16:59:10;7.80;;;3.00;;
76708;SDS011;74360;44.410;0.216;2024-03-17T17:04:43;6.70;;;2.53;;
76708;SDS011;74360;44.410;0.216;2024-03-17T17:10:16;8.70;;;3.53;;
76708;SDS011;74360;44.410;0.216;2024-03-17T17:15:47;8.53;;;2.50;;
76708;SDS011;74360;44.410;0.216;2024-03-17T17:26:54;8.40;;;2.97;;
76708;SDS011;74360;44.410;0.216;2024-03-17T17:32:25;6.83;;;2.60;;
76708;SDS011;74360;44.410;0.216;2024-03-17T17:37:57;6.40;;;2.53;;
76708;SDS011;74360;44.410;0.216;2024-03-17T17:43:30;8.27;;;4.20;;
76708;SDS011;74360;44.410;0.216;2024-03-17T17:49:03;7.57;;;2.77;;
76708;SDS011;74360;44.410;0.216;2024-03-17T17:54:35;8.10;;;3.30;;
76708;SDS011;74360;44.410;0.216;2024-03-17T18:00:11;7.17;;;2.90;;
76708;SDS011;74360;44.410;0.216;2024-03-17T18:05:40;8.07;;;3.20;;
76708;SDS011;74360;44.410;0.216;2024-03-17T18:11:15;8.10;;;3.10;;
76708;SDS011;74360;44.410;0.216;2024-03-17T18:16:47;9.70;;;3.37;;
76708;SDS011;74360;44.410;0.216;2024-03-17T18:22:19;7.27;;;2.83;;
76708;SDS011;74360;44.410;0.216;2024-03-17T18:27:52;7.50;;;3.60;;
76708;SDS011;74360;44.410;0.216;2024-03-17T18:33:24;26.00;;;15.17;;
76708;SDS011;74360;44.410;0.216;2024-03-17T18:38:56;11.83;;;4.30;;
76708;SDS011;74360;44.410;0.216;2024-03-17T18:44:29;11.60;;;4.50;;
76708;SDS011;74360;44.410;0.216;2024-03-17T18:50:01;13.63;;;8.80;;
76708;SDS011;74360;44.410;0.216;2024-03-17T18:55:33;14.33;;;8.47;;
76708;SDS011;74360;44.410;0.216;2024-03-17T19:01:06;15.03;;;7.10;;
76708;SDS011;74360;44.410;0.216;2024-03-17T19:06:38;9.23;;;4.07;;
76708;SDS011;74360;44.410;0.216;2024-03-17T19:12:11;8.80;;;4.80;;
76708;SDS011;74360;44.410;0.216;2024-03-17T19:17:44;17.10;;;7.57;;
76708;SDS011;74360;44.410;0.216;2024-03-17T19:23:17;12.67;;;4.73;;
76708;SDS011;74360;44.410;0.216;2024-03-17T19:28:50;14.47;;;8.40;;
76708;SDS011;74360;44.410;0.216;2024-03-17T19:34:23;13.30;;;5.50;;
76708;SDS011;74360;44.410;0.216;2024-03-17T19:39:55;15.43;;;5.73;;
76708;SDS011;74360;44.410;0.216;2024-03-17T19:45:29;9.00;;;4.30;;
76708;SDS011;74360;44.410;0.216;2024-03-17T19:51:06;12.77;;;7.17;;
76708;SDS011;74360;44.410;0.216;2024-03-17T19:56:35;11.67;;;5.77;;
76708;SDS011;74360;44.410;0.216;2024-03-17T20:02:08;12.43;;;5.60;;
76708;SDS011;74360;44.410;0.216;2024-03-17T20:07:40;14.57;;;8.00;;
76708;SDS011;74360;44.410;0.216;2024-03-17T20:13:12;16.90;;;8.17;;
76708;SDS011;74360;44.410;0.216;2024-03-17T20:18:45;13.80;;;8.30;;
76708;SDS011;74360;44.410;0.216;2024-03-17T20:24:18;12.07;;;6.70;;
76708;SDS011;74360;44.410;0.216;2024-03-17T20:29:51;10.10;;;5.23;;
76708;SDS011;74360;44.410;0.216;2024-03-17T20:35:24;12.87;;;6.67;;
76708;SDS011;74360;44.410;0.216;2024-03-17T20:40:57;11.87;;;5.70;;
76708;SDS011;74360;44.410;0.216;2024-03-17T20:46:31;11.83;;;5.00;;
76708;SDS011;74360;44.410;0.216;2024-03-17T20:52:04;16.97;;;8.30;;
76708;SDS011;74360;44.410;0.216;2024-03-17T20:57:36;14.30;;;6.63;;
76708;SDS011;74360;44.410;0.216;2024-03-17T21:03:09;11.50;;;5.47;;
76708;SDS011;74360;44.410;0.216;2024-03-17T21:08:40;10.87;;;5.20;;
76708;SDS011;74360;44.410;0.216;2024-03-17T21:14:12;12.53;;;5.57;;
76708;SDS011;74360;44.410;0.216;2024-03-17T21:19:45;12.70;;;5.83;;
76708;SDS011;74360;44.410;0.216;2024-03-17T21:25:17;11.03;;;5.23;;
76708;SDS011;74360;44.410;0.216;2024-03-17T21:30:57;10.83;;;5.10;;
76708;SDS011;74360;44.410;0.216;2024-03-17T21:36:23;13.47;;;5.43;;
76708;SDS011;74360;44.410;0.216;2024-03-17T21:41:55;16.37;;;6.80;;
76708;SDS011;74360;44.410;0.216;2024-03-17T21:47:30;12.60;;;6.00;;
76708;SDS011;74360;44.410;0.216;2024-03-17T21:53:02;12.07;;;5.03;;
76708;SDS011;74360;44.410;0.216;2024-03-17T21:58:34;12.90;;;4.63;;
76708;SDS011;74360;44.410;0.216;2024-03-17T22:04:06;9.93;;;4.20;;
76708;SDS011;74360;44.410;0.216;2024-03-17T22:09:39;8.80;;;3.50;;
76708;SDS011;74360;44.410;0.216;2024-03-17T22:15:13;8.50;;;3.40;;
76708;SDS011;74360;44.410;0.216;2024-03-17T22:20:51;7.27;;;2.80;;
76708;SDS011;74360;44.410;0.216;2024-03-17T22:26:20;8.07;;;3.10;;
76708;SDS011;74360;44.410;0.216;2024-03-17T22:31:53;8.23;;;2.73;;
76708;SDS011;74360;44.410;0.216;2024-03-17T22:37:25;8.03;;;2.70;;
76708;SDS011;74360;44.410;0.216;2024-03-17T22:42:58;7.73;;;3.20;;
76708;SDS011;74360;44.410;0.216;2024-03-17T22:48:31;8.83;;;3.33;;
76708;SDS011;74360;44.410;0.216;2024-03-17T22:54:04;11.80;;;5.03;;
76708;SDS011;74360;44.410;0.216;2024-03-17T22:59:35;7.50;;;3.17;;
76708;SDS011;74360;44.410;0.216;2024-03-17T23:05:09;7.87;;;3.33;;
76708;SDS011;74360;44.410;0.216;2024-03-17T23:10:41;9.33;;;3.67;;
76708;SDS011;74360;44.410;0.216;2024-03-17T23:21:47;7.67;;;2.37;;
76708;SDS011;74360;44.410;0.216;2024-03-17T23:27:20;5.97;;;2.30;;
76708;SDS011;74360;44.410;0.216;2024-03-17T23:32:53;6.30;;;2.30;;
76708;SDS011;74360;44.410;0.216;2024-03-17T23:38:26;5.73;;;2.13;;
76708;SDS011;74360;44.410;0.216;2024-03-17T23:43:59;5.87;;;2.20;;
76708;SDS011;74360;44.410;0.216;2024-03-17T23:49:33;7.90;;;3.30;;
76708;SDS011;74360;44.410;0.216;2024-03-17T23:55:06;8.03;;;3.60;;
